sensor_id;sensor_type;location;lat;lon;timestamp;pressure;altitude;pressure_sealevel;temperature;humidity
77583;BME280;66726;52.388;9.986;2023-02-15T00:00:16;102386.31;;;0.90;79.92
77583;BME280;66726;52.388;9.986;2023-02-15T00:02:44;102383.78;;;0.87;79.89
77583;BME280;66726;52.388;9.986;2023-02-15T00:05:14;102384.59;;;0.89;80.62
77583;BME280;66726;52.388;9.986;2023-02-15T00:07:42;102381.78;;;0.93;79.99
77583;BME280;66726;52.388;9.986;2023-02-15T00:10:11;102380.53;;;0.80;79.98
77583;BME280;66726;52.388;9.986;2023-02-15T00:12:39;102371.38;;;0.67;80.80
77583;BME280;66726;52.388;9.986;2023-02-15T00:15:08;102380.81;;;0.73;80.96
77583;BME280;66726;52.388;9.986;2023-02-15T00:17:36;102376.25;;;0.78;80.36
77583;BME280;66726;52.388;9.986;2023-02-15T00:20:05;102371.13;;;0.73;79.71
77583;BME280;66726;52.388;9.986;2023-02-15T00:22:35;102370.97;;;0.78;79.43
77583;BME280;66726;52.388;9.986;2023-02-15T00:25:04;102372.09;;;0.71;80.55
77583;BME280;66726;52.388;9.986;2023-02-15T00:27:33;102360.31;;;0.58;80.37
77583;BME280;66726;52.388;9.986;2023-02-15T00:30:01;102356.06;;;0.54;80.54
77583;BME280;66726;52.388;9.986;2023-02-15T00:32:29;102358.63;;;0.55;81.75
77583;BME280;66726;52.388;9.986;2023-02-15T00:34:58;102353.91;;;0.65;80.67
77583;BME280;66726;52.388;9.986;2023-02-15T00:37:26;102354.69;;;0.67;80.08
77583;BME280;66726;52.388;9.986;2023-02-15T00:39:55;102354.09;;;0.59;80.23
77583;BME280;66726;52.388;9.986;2023-02-15T00:42:23;102353.44;;;0.54;80.84
77583;BME280;66726;52.388;9.986;2023-02-15T00:44:51;102351.59;;;0.56;79.73
77583;BME280;66726;52.388;9.986;2023-02-15T00:47:19;102347.47;;;0.72;80.31
77583;BME280;66726;52.388;9.986;2023-02-15T00:49:48;102346.19;;;0.59;80.47
77583;BME280;66726;52.388;9.986;2023-02-15T00:52:16;102343.88;;;0.51;80.98
77583;BME280;66726;52.388;9.986;2023-02-15T00:54:44;102343.63;;;0.57;80.68
77583;BME280;66726;52.388;9.986;2023-02-15T00:57:13;102338.81;;;0.45;81.00
77583;BME280;66726;52.388;9.986;2023-02-15T00:59:41;102338.19;;;0.38;81.98
77583;BME280;66726;52.388;9.986;2023-02-15T01:02:12;102339.91;;;0.39;82.97
77583;BME280;66726;52.388;9.986;2023-02-15T01:04:40;102342.50;;;0.41;82.54
77583;BME280;66726;52.388;9.986;2023-02-15T01:07:08;102326.69;;;0.41;81.86
77583;BME280;66726;52.388;9.986;2023-02-15T01:09:36;102329.38;;;0.39;83.56
77583;BME280;66726;52.388;9.986;2023-02-15T01:12:05;102327.63;;;0.38;82.02
77583;BME280;66726;52.388;9.986;2023-02-15T01:14:34;102341.75;;;0.37;82.51
77583;BME280;66726;52.388;9.986;2023-02-15T01:17:02;102329.25;;;0.42;83.71
77583;BME280;66726;52.388;9.986;2023-02-15T01:19:30;102330.13;;;0.43;84.11
77583;BME280;66726;52.388;9.986;2023-02-15T01:21:58;102340.13;;;0.33;84.34
77583;BME280;66726;52.388;9.986;2023-02-15T01:24:27;102336.47;;;0.37;82.61
77583;BME280;66726;52.388;9.986;2023-02-15T01:26:55;102340.19;;;0.32;82.71
77583;BME280;66726;52.388;9.986;2023-02-15T01:29:23;102334.25;;;0.27;84.09
77583;BME280;66726;52.388;9.986;2023-02-15T01:31:52;102336.56;;;0.34;84.70
77583;BME280;66726;52.388;9.986;2023-02-15T01:34:21;102334.06;;;0.31;84.23
77583;BME280;66726;52.388;9.986;2023-02-15T01:36:49;102327.34;;;0.23;84.93
77583;BME280;66726;52.388;9.986;2023-02-15T01:39:17;102331.75;;;0.22;83.99
77583;BME280;66726;52.388;9.986;2023-02-15T01:41:45;102324.22;;;0.36;83.46
77583;BME280;66726;52.388;9.986;2023-02-15T01:44:52;102320.09;;;0.29;82.43
77583;BME280;66726;52.388;9.986;2023-02-15T01:47:30;102319.94;;;0.34;82.77
77583;BME280;66726;52.388;9.986;2023-02-15T01:50:09;102307.03;;;0.26;82.23
77583;BME280;66726;52.388;9.986;2023-02-15T01:52:42;102304.00;;;0.14;82.36
77583;BME280;66726;52.388;9.986;2023-02-15T01:55:14;102310.94;;;0.16;83.79
77583;BME280;66726;52.388;9.986;2023-02-15T01:57:45;102307.16;;;0.23;85.37
77583;BME280;66726;52.388;9.986;2023-02-15T02:00:15;102307.34;;;0.17;83.13
77583;BME280;66726;52.388;9.986;2023-02-15T02:02:50;102297.53;;;0.22;84.86
77583;BME280;66726;52.388;9.986;2023-02-15T02:05:20;102290.38;;;0.26;84.94
77583;BME280;66726;52.388;9.986;2023-02-15T02:07:52;102298.09;;;0.30;83.51
77583;BME280;66726;52.388;9.986;2023-02-15T02:10:24;102294.41;;;0.34;83.24
77583;BME280;66726;52.388;9.986;2023-02-15T02:12:57;102290.53;;;0.21;82.53
77583;BME280;66726;52.388;9.986;2023-02-15T02:15:40;102285.66;;;0.11;82.71
77583;BME280;66726;52.388;9.986;2023-02-15T02:18:30;102281.13;;;0.14;82.12
77583;BME280;66726;52.388;9.986;2023-02-15T02:21:59;102278.88;;;0.04;82.18
77583;BME280;66726;52.388;9.986;2023-02-15T02:25:12;102267.53;;;0.03;83.83
77583;BME280;66726;52.388;9.986;2023-02-15T02:27:50;102274.84;;;-0.05;82.67
77583;BME280;66726;52.388;9.986;2023-02-15T02:30:59;102267.28;;;0.09;82.78
77583;BME280;66726;52.388;9.986;2023-02-15T02:33:59;102269.66;;;0.17;82.14
77583;BME280;66726;52.388;9.986;2023-02-15T02:36:41;102279.19;;;0.19;82.93
77583;BME280;66726;52.388;9.986;2023-02-15T02:39:25;102264.38;;;0.17;82.45
77583;BME280;66726;52.388;9.986;2023-02-15T02:42:06;102272.31;;;0.15;81.77
77583;BME280;66726;52.388;9.986;2023-02-15T02:44:43;102265.63;;;0.07;82.99
77583;BME280;66726;52.388;9.986;2023-02-15T02:47:17;102260.19;;;0.11;82.38
77583;BME280;66726;52.388;9.986;2023-02-15T02:49:58;102256.63;;;0.12;81.86
77583;BME280;66726;52.388;9.986;2023-02-15T02:52:41;102256.25;;;-0.01;81.14
77583;BME280;66726;52.388;9.986;2023-02-15T02:55:16;102252.69;;;0.00;81.22
77583;BME280;66726;52.388;9.986;2023-02-15T02:57:53;102243.00;;;0.01;81.47
77583;BME280;66726;52.388;9.986;2023-02-15T03:00:25;102241.59;;;-0.08;81.64
77583;BME280;66726;52.388;9.986;2023-02-15T03:03:01;102244.50;;;-0.15;82.95
77583;BME280;66726;52.388;9.986;2023-02-15T03:05:36;102234.75;;;-0.13;83.19
77583;BME280;66726;52.388;9.986;2023-02-15T03:08:06;102234.97;;;-0.19;83.84
77583;BME280;66726;52.388;9.986;2023-02-15T03:10:39;102229.59;;;-0.16;83.28
77583;BME280;66726;52.388;9.986;2023-02-15T03:13:08;102227.84;;;-0.16;83.93
77583;BME280;66726;52.388;9.986;2023-02-15T03:15:39;102231.31;;;-0.15;83.18
77583;BME280;66726;52.388;9.986;2023-02-15T03:18:34;102219.06;;;-0.16;82.67
77583;BME280;66726;52.388;9.986;2023-02-15T03:21:07;102224.34;;;-0.16;83.22
77583;BME280;66726;52.388;9.986;2023-02-15T03:23:59;102219.91;;;-0.14;82.47
77583;BME280;66726;52.388;9.986;2023-02-15T03:26:30;102225.31;;;-0.19;82.09
77583;BME280;66726;52.388;9.986;2023-02-15T03:29:02;102226.50;;;-0.27;81.99
77583;BME280;66726;52.388;9.986;2023-02-15T03:31:36;102217.69;;;-0.26;82.91
77583;BME280;66726;52.388;9.986;2023-02-15T03:34:10;102225.34;;;-0.20;82.44
77583;BME280;66726;52.388;9.986;2023-02-15T03:36:46;102227.34;;;-0.27;81.79
77583;BME280;66726;52.388;9.986;2023-02-15T03:39:22;102215.63;;;-0.41;82.53
77583;BME280;66726;52.388;9.986;2023-02-15T03:42:01;102217.41;;;-0.42;83.09
77583;BME280;66726;52.388;9.986;2023-02-15T03:44:38;102211.28;;;-0.42;82.95
77583;BME280;66726;52.388;9.986;2023-02-15T03:47:15;102207.28;;;-0.29;82.41
77583;BME280;66726;52.388;9.986;2023-02-15T03:49:52;102199.63;;;-0.35;82.59
77583;BME280;66726;52.388;9.986;2023-02-15T03:52:25;102199.50;;;-0.32;82.74
77583;BME280;66726;52.388;9.986;2023-02-15T03:54:54;102201.78;;;-0.23;82.76
77583;BME280;66726;52.388;9.986;2023-02-15T03:57:25;102201.78;;;-0.23;81.82
77583;BME280;66726;52.388;9.986;2023-02-15T04:00:15;102207.25;;;-0.28;80.78
77583;BME280;66726;52.388;9.986;2023-02-15T04:03:16;102212.13;;;-0.17;81.35
77583;BME280;66726;52.388;9.986;2023-02-15T04:05:51;102214.75;;;-0.17;80.85
77583;BME280;66726;52.388;9.986;2023-02-15T04:08:21;102218.41;;;-0.21;79.97
77583;BME280;66726;52.388;9.986;2023-02-15T04:11:09;102215.97;;;-0.27;81.09
77583;BME280;66726;52.388;9.986;2023-02-15T04:13:36;102217.91;;;-0.32;81.66
77583;BME280;66726;52.388;9.986;2023-02-15T04:16:05;102215.34;;;-0.34;81.44
77583;BME280;66726;52.388;9.986;2023-02-15T04:18:37;102205.78;;;-0.36;81.56
77583;BME280;66726;52.388;9.986;2023-02-15T04:21:24;102198.22;;;-0.45;82.34
77583;BME280;66726;52.388;9.986;2023-02-15T04:24:12;102209.31;;;-0.37;82.76
77583;BME280;66726;52.388;9.986;2023-02-15T04:26:59;102197.25;;;-0.43;81.79
77583;BME280;66726;52.388;9.986;2023-02-15T04:29:29;102198.91;;;-0.40;81.20
77583;BME280;66726;52.388;9.986;2023-02-15T04:32:03;102193.75;;;-0.43;82.12
77583;BME280;66726;52.388;9.986;2023-02-15T04:34:31;102196.00;;;-0.58;81.99
77583;BME280;66726;52.388;9.986;2023-02-15T04:36:59;102188.94;;;-0.56;81.83
77583;BME280;66726;52.388;9.986;2023-02-15T04:39:28;102186.69;;;-0.66;82.18
77583;BME280;66726;52.388;9.986;2023-02-15T04:41:56;102189.88;;;-0.58;82.17
77583;BME280;66726;52.388;9.986;2023-02-15T04:44:25;102189.75;;;-0.54;82.51
77583;BME280;66726;52.388;9.986;2023-02-15T04:46:53;102186.88;;;-0.47;81.82
77583;BME280;66726;52.388;9.986;2023-02-15T04:49:21;102185.06;;;-0.45;81.37
77583;BME280;66726;52.388;9.986;2023-02-15T04:51:51;102189.41;;;-0.44;81.17
77583;BME280;66726;52.388;9.986;2023-02-15T04:54:22;102190.34;;;-0.45;81.90
77583;BME280;66726;52.388;9.986;2023-02-15T04:56:52;102179.00;;;-0.47;81.55
77583;BME280;66726;52.388;9.986;2023-02-15T04:59:20;102179.47;;;-0.61;81.13
77583;BME280;66726;52.388;9.986;2023-02-15T05:01:48;102178.53;;;-0.59;81.91
77583;BME280;66726;52.388;9.986;2023-02-15T05:04:16;102185.59;;;-0.61;81.49
77583;BME280;66726;52.388;9.986;2023-02-15T05:06:44;102168.44;;;-0.71;80.82
77583;BME280;66726;52.388;9.986;2023-02-15T05:09:13;102165.13;;;-0.76;82.80
77583;BME280;66726;52.388;9.986;2023-02-15T05:11:41;102162.59;;;-0.79;83.81
77583;BME280;66726;52.388;9.986;2023-02-15T05:14:11;102159.16;;;-0.81;82.95
77583;BME280;66726;52.388;9.986;2023-02-15T05:16:39;102163.28;;;-0.74;83.57
77583;BME280;66726;52.388;9.986;2023-02-15T05:19:07;102161.56;;;-0.75;81.94
77583;BME280;66726;52.388;9.986;2023-02-15T05:21:36;102158.13;;;-0.77;83.46
77583;BME280;66726;52.388;9.986;2023-02-15T05:24:04;102162.66;;;-0.80;83.03
77583;BME280;66726;52.388;9.986;2023-02-15T05:26:53;102161.00;;;-0.83;82.26
77583;BME280;66726;52.388;9.986;2023-02-15T05:29:43;102159.97;;;-0.79;83.07
77583;BME280;66726;52.388;9.986;2023-02-15T05:32:13;102165.22;;;-0.79;81.88
77583;BME280;66726;52.388;9.986;2023-02-15T05:34:41;102166.81;;;-0.75;82.00
77583;BME280;66726;52.388;9.986;2023-02-15T05:37:10;102164.78;;;-0.67;81.80
77583;BME280;66726;52.388;9.986;2023-02-15T05:39:38;102166.72;;;-0.72;81.84
77583;BME280;66726;52.388;9.986;2023-02-15T05:42:06;102163.19;;;-0.71;82.00
77583;BME280;66726;52.388;9.986;2023-02-15T05:44:34;102162.53;;;-0.77;82.08
77583;BME280;66726;52.388;9.986;2023-02-15T05:47:03;102160.00;;;-0.80;82.97
77583;BME280;66726;52.388;9.986;2023-02-15T05:49:34;102159.41;;;-0.88;82.78
77583;BME280;66726;52.388;9.986;2023-02-15T05:52:03;102153.41;;;-0.92;82.75
77583;BME280;66726;52.388;9.986;2023-02-15T05:54:31;102152.38;;;-0.88;82.82
77583;BME280;66726;52.388;9.986;2023-02-15T05:56:59;102150.50;;;-0.84;84.14
77583;BME280;66726;52.388;9.986;2023-02-15T05:59:28;102146.88;;;-0.80;83.47
77583;BME280;66726;52.388;9.986;2023-02-15T06:01:56;102154.59;;;-0.76;85.37
77583;BME280;66726;52.388;9.986;2023-02-15T06:04:25;102160.63;;;-0.72;85.92
77583;BME280;66726;52.388;9.986;2023-02-15T06:06:53;102159.75;;;-0.73;84.60
77583;BME280;66726;52.388;9.986;2023-02-15T06:09:21;102154.22;;;-0.65;85.98
77583;BME280;66726;52.388;9.986;2023-02-15T06:11:50;102154.00;;;-0.59;87.66
77583;BME280;66726;52.388;9.986;2023-02-15T06:14:18;102145.03;;;-0.54;87.53
77583;BME280;66726;52.388;9.986;2023-02-15T06:16:46;102152.69;;;-0.47;87.63
77583;BME280;66726;52.388;9.986;2023-02-15T06:19:14;102149.03;;;-0.43;87.50
77583;BME280;66726;52.388;9.986;2023-02-15T06:21:44;102147.25;;;-0.43;86.97
77583;BME280;66726;52.388;9.986;2023-02-15T06:24:13;102141.13;;;-0.43;87.46
77583;BME280;66726;52.388;9.986;2023-02-15T06:26:44;102138.50;;;-0.43;87.53
77583;BME280;66726;52.388;9.986;2023-02-15T06:29:12;102144.75;;;-0.46;86.23
77583;BME280;66726;52.388;9.986;2023-02-15T06:31:40;102148.34;;;-0.48;86.53
77583;BME280;66726;52.388;9.986;2023-02-15T06:34:09;102145.75;;;-0.50;86.40
77583;BME280;66726;52.388;9.986;2023-02-15T06:36:37;102144.00;;;-0.49;87.47
77583;BME280;66726;52.388;9.986;2023-02-15T06:39:06;102144.03;;;-0.51;87.95
77583;BME280;66726;52.388;9.986;2023-02-15T06:41:34;102144.91;;;-0.51;87.30
77583;BME280;66726;52.388;9.986;2023-02-15T06:44:03;102149.31;;;-0.51;86.70
77583;BME280;66726;52.388;9.986;2023-02-15T06:46:31;102145.88;;;-0.53;87.50
77583;BME280;66726;52.388;9.986;2023-02-15T06:48:59;102133.63;;;-0.54;87.68
77583;BME280;66726;52.388;9.986;2023-02-15T06:51:27;102142.38;;;-0.54;87.15
77583;BME280;66726;52.388;9.986;2023-02-15T06:53:55;102141.47;;;-0.53;88.25
77583;BME280;66726;52.388;9.986;2023-02-15T06:56:25;102144.16;;;-0.54;87.84
77583;BME280;66726;52.388;9.986;2023-02-15T06:58:53;102133.72;;;-0.56;86.67
77583;BME280;66726;52.388;9.986;2023-02-15T07:01:24;102139.00;;;-0.57;86.87
77583;BME280;66726;52.388;9.986;2023-02-15T07:03:52;102141.72;;;-0.59;86.82
77583;BME280;66726;52.388;9.986;2023-02-15T07:06:21;102139.09;;;-0.59;87.33
77583;BME280;66726;52.388;9.986;2023-02-15T07:08:49;102133.88;;;-0.60;86.99
77583;BME280;66726;52.388;9.986;2023-02-15T07:11:17;102138.16;;;-0.58;86.83
77583;BME280;66726;52.388;9.986;2023-02-15T07:14:04;102134.63;;;-0.57;87.80
77583;BME280;66726;52.388;9.986;2023-02-15T07:16:32;102129.34;;;-0.57;88.11
77583;BME280;66726;52.388;9.986;2023-02-15T07:19:00;102128.44;;;-0.56;88.27
77583;BME280;66726;52.388;9.986;2023-02-15T07:21:28;102126.59;;;-0.54;87.72
77583;BME280;66726;52.388;9.986;2023-02-15T07:23:57;102133.59;;;-0.53;87.15
77583;BME280;66726;52.388;9.986;2023-02-15T07:26:26;102132.69;;;-0.52;88.58
77583;BME280;66726;52.388;9.986;2023-02-15T07:28:54;102144.03;;;-0.51;88.08
77583;BME280;66726;52.388;9.986;2023-02-15T07:31:25;102144.13;;;-0.53;88.41
77583;BME280;66726;52.388;9.986;2023-02-15T07:33:53;102144.13;;;-0.53;87.54
77583;BME280;66726;52.388;9.986;2023-02-15T07:36:21;102144.78;;;-0.47;87.84
77583;BME280;66726;52.388;9.986;2023-02-15T07:38:49;102145.53;;;-0.44;88.63
77583;BME280;66726;52.388;9.986;2023-02-15T07:41:17;102143.59;;;-0.39;87.57
77583;BME280;66726;52.388;9.986;2023-02-15T07:43:45;102148.72;;;-0.34;88.25
77583;BME280;66726;52.388;9.986;2023-02-15T07:46:15;102146.09;;;-0.34;88.60
77583;BME280;66726;52.388;9.986;2023-02-15T07:48:46;102147.53;;;-0.27;87.87
77583;BME280;66726;52.388;9.986;2023-02-15T07:51:15;102139.44;;;-0.21;88.27
77583;BME280;66726;52.388;9.986;2023-02-15T07:53:43;102140.09;;;-0.16;88.33
77583;BME280;66726;52.388;9.986;2023-02-15T07:56:13;102144.47;;;-0.15;88.86
77583;BME280;66726;52.388;9.986;2023-02-15T07:58:41;102150.34;;;-0.09;89.47
77583;BME280;66726;52.388;9.986;2023-02-15T08:01:22;102144.69;;;0.02;90.91
77583;BME280;66726;52.388;9.986;2023-02-15T08:03:52;102140.66;;;0.15;90.28
77583;BME280;66726;52.388;9.986;2023-02-15T08:06:22;102128.78;;;0.27;89.60
77583;BME280;66726;52.388;9.986;2023-02-15T08:08:51;102135.56;;;0.32;90.19
77583;BME280;66726;52.388;9.986;2023-02-15T08:11:22;102139.00;;;0.34;88.78
77583;BME280;66726;52.388;9.986;2023-02-15T08:13:57;102128.63;;;0.51;89.84
77583;BME280;66726;52.388;9.986;2023-02-15T08:16:31;102123.50;;;0.48;88.49
77583;BME280;66726;52.388;9.986;2023-02-15T08:19:03;102121.53;;;0.54;89.88
77583;BME280;66726;52.388;9.986;2023-02-15T08:21:34;102121.47;;;0.55;88.37
77583;BME280;66726;52.388;9.986;2023-02-15T08:24:05;102114.72;;;0.70;89.05
77583;BME280;66726;52.388;9.986;2023-02-15T08:26:34;102105.16;;;0.67;88.79
77583;BME280;66726;52.388;9.986;2023-02-15T08:29:03;102102.13;;;0.76;88.66
77583;BME280;66726;52.388;9.986;2023-02-15T08:31:34;102093.16;;;0.80;88.54
77583;BME280;66726;52.388;9.986;2023-02-15T08:34:05;102097.22;;;0.89;87.76
77583;BME280;66726;52.388;9.986;2023-02-15T08:36:34;102090.81;;;0.94;87.64
77583;BME280;66726;52.388;9.986;2023-02-15T08:39:05;102096.00;;;0.96;88.17
77583;BME280;66726;52.388;9.986;2023-02-15T08:41:35;102086.25;;;0.98;87.89
77583;BME280;66726;52.388;9.986;2023-02-15T08:44:06;102094.03;;;1.01;88.38
77583;BME280;66726;52.388;9.986;2023-02-15T08:46:37;102095.53;;;1.07;88.04
77583;BME280;66726;52.388;9.986;2023-02-15T08:49:09;102092.28;;;1.20;88.02
77583;BME280;66726;52.388;9.986;2023-02-15T08:51:38;102098.53;;;1.38;87.39
77583;BME280;66726;52.388;9.986;2023-02-15T08:54:10;102071.81;;;1.45;86.48
77583;BME280;66726;52.388;9.986;2023-02-15T08:56:42;102070.25;;;1.60;86.28
77583;BME280;66726;52.388;9.986;2023-02-15T08:59:14;102068.75;;;1.73;85.59
77583;BME280;66726;52.388;9.986;2023-02-15T09:01:44;102076.22;;;1.82;85.21
77583;BME280;66726;52.388;9.986;2023-02-15T09:04:14;102076.38;;;1.98;84.08
77583;BME280;66726;52.388;9.986;2023-02-15T09:06:44;102070.19;;;2.16;83.87
77583;BME280;66726;52.388;9.986;2023-02-15T09:09:15;102064.34;;;2.28;83.83
77583;BME280;66726;52.388;9.986;2023-02-15T09:11:46;102073.44;;;2.40;83.36
77583;BME280;66726;52.388;9.986;2023-02-15T09:14:18;102075.53;;;2.50;82.55
77583;BME280;66726;52.388;9.986;2023-02-15T09:16:47;102075.25;;;2.57;82.23
77583;BME280;66726;52.388;9.986;2023-02-15T09:19:21;102070.94;;;2.54;83.33
77583;BME280;66726;52.388;9.986;2023-02-15T09:21:50;102072.38;;;2.61;81.77
77583;BME280;66726;52.388;9.986;2023-02-15T09:24:18;102079.75;;;2.72;81.15
77583;BME280;66726;52.388;9.986;2023-02-15T09:26:48;102082.78;;;2.81;81.05
77583;BME280;66726;52.388;9.986;2023-02-15T09:29:18;102080.78;;;2.86;81.33
77583;BME280;66726;52.388;9.986;2023-02-15T09:31:48;102082.78;;;2.98;81.68
77583;BME280;66726;52.388;9.986;2023-02-15T09:34:22;102076.16;;;3.07;81.23
77583;BME280;66726;52.388;9.986;2023-02-15T09:36:50;102074.97;;;3.13;80.23
77583;BME280;66726;52.388;9.986;2023-02-15T09:39:21;102073.84;;;3.01;79.43
77583;BME280;66726;52.388;9.986;2023-02-15T09:45:49;102072.88;;;3.02;79.92
77583;BME280;66726;52.388;9.986;2023-02-15T09:48:39;102072.28;;;3.14;79.44
77583;BME280;66726;52.388;9.986;2023-02-15T09:51:45;102074.66;;;3.19;79.68
77583;BME280;66726;52.388;9.986;2023-02-15T09:54:33;102064.88;;;3.36;78.26
77583;BME280;66726;52.388;9.986;2023-02-15T09:57:15;102059.88;;;3.47;78.01
77583;BME280;66726;52.388;9.986;2023-02-15T10:00:00;102070.59;;;3.62;77.91
77583;BME280;66726;52.388;9.986;2023-02-15T10:02:50;102069.47;;;3.66;76.88
77583;BME280;66726;52.388;9.986;2023-02-15T10:05:34;102058.19;;;3.78;76.47
77583;BME280;66726;52.388;9.986;2023-02-15T10:08:40;102058.22;;;3.93;76.26
77583;BME280;66726;52.388;9.986;2023-02-15T10:11:17;102069.31;;;4.00;75.94
77583;BME280;66726;52.388;9.986;2023-02-15T10:14:50;102057.69;;;4.02;75.60
77583;BME280;66726;52.388;9.986;2023-02-15T10:17:41;102055.19;;;4.15;74.78
77583;BME280;66726;52.388;9.986;2023-02-15T10:20:26;102062.28;;;4.30;74.72
77583;BME280;66726;52.388;9.986;2023-02-15T10:23:28;102061.75;;;4.39;74.00
77583;BME280;66726;52.388;9.986;2023-02-15T10:26:08;102068.75;;;4.40;75.51
77583;BME280;66726;52.388;9.986;2023-02-15T10:28:48;102060.56;;;4.45;75.04
77583;BME280;66726;52.388;9.986;2023-02-15T10:31:24;102057.53;;;4.51;75.96
77583;BME280;66726;52.388;9.986;2023-02-15T10:34:14;102056.69;;;4.50;76.25
77583;BME280;66726;52.388;9.986;2023-02-15T10:37:16;102053.28;;;4.48;77.53
77583;BME280;66726;52.388;9.986;2023-02-15T10:40:03;102053.81;;;4.69;74.96
77583;BME280;66726;52.388;9.986;2023-02-15T10:42:56;102049.75;;;4.78;74.89
77583;BME280;66726;52.388;9.986;2023-02-15T10:45:36;102049.78;;;4.92;75.11
77583;BME280;66726;52.388;9.986;2023-02-15T10:48:45;102047.22;;;5.04;73.38
77583;BME280;66726;52.388;9.986;2023-02-15T10:51:32;102038.88;;;5.10;72.80
77583;BME280;66726;52.388;9.986;2023-02-15T10:54:14;102038.03;;;5.24;72.33
77583;BME280;66726;52.388;9.986;2023-02-15T10:56:54;102047.53;;;5.28;72.39
77583;BME280;66726;52.388;9.986;2023-02-15T10:59:48;102034.84;;;5.33;72.10
77583;BME280;66726;52.388;9.986;2023-02-15T11:02:35;102043.34;;;5.38;72.35
77583;BME280;66726;52.388;9.986;2023-02-15T11:05:38;102038.03;;;5.52;71.09
77583;BME280;66726;52.388;9.986;2023-02-15T11:08:11;102032.69;;;5.67;70.94
77583;BME280;66726;52.388;9.986;2023-02-15T11:10:45;102035.53;;;5.78;71.18
77583;BME280;66726;52.388;9.986;2023-02-15T11:13:19;102024.72;;;5.81;69.35
77583;BME280;66726;52.388;9.986;2023-02-15T11:15:52;102022.47;;;5.89;70.07
77583;BME280;66726;52.388;9.986;2023-02-15T11:18:28;102023.34;;;6.02;70.71
77583;BME280;66726;52.388;9.986;2023-02-15T11:21:06;102020.75;;;6.15;69.19
77583;BME280;66726;52.388;9.986;2023-02-15T11:23:44;102020.66;;;6.16;69.81
77583;BME280;66726;52.388;9.986;2023-02-15T11:26:17;102011.50;;;6.20;69.60
77583;BME280;66726;52.388;9.986;2023-02-15T11:28:54;102008.09;;;6.18;69.65
77583;BME280;66726;52.388;9.986;2023-02-15T11:31:31;102009.81;;;6.19;71.34
77583;BME280;66726;52.388;9.986;2023-02-15T11:34:13;102007.38;;;6.29;69.94
77583;BME280;66726;52.388;9.986;2023-02-15T11:36:44;102009.19;;;6.28;69.48
77583;BME280;66726;52.388;9.986;2023-02-15T11:39:17;102013.88;;;6.37;68.80
77583;BME280;66726;52.388;9.986;2023-02-15T11:41:52;102017.84;;;6.44;69.09
77583;BME280;66726;52.388;9.986;2023-02-15T11:44:29;102009.06;;;6.56;68.74
77583;BME280;66726;52.388;9.986;2023-02-15T11:47:00;102010.44;;;6.75;69.68
77583;BME280;66726;52.388;9.986;2023-02-15T11:49:32;102012.94;;;6.78;69.98
77583;BME280;66726;52.388;9.986;2023-02-15T11:52:05;101999.19;;;6.84;70.93
77583;BME280;66726;52.388;9.986;2023-02-15T11:54:39;102004.84;;;7.04;67.71
77583;BME280;66726;52.388;9.986;2023-02-15T11:57:16;102001.44;;;7.15;67.97
77583;BME280;66726;52.388;9.986;2023-02-15T11:59:56;102001.72;;;7.23;68.75
77583;BME280;66726;52.388;9.986;2023-02-15T12:02:26;101999.47;;;7.30;69.11
77583;BME280;66726;52.388;9.986;2023-02-15T12:05:00;101987.00;;;7.30;68.71
77583;BME280;66726;52.388;9.986;2023-02-15T12:07:35;101987.53;;;7.35;70.46
77583;BME280;66726;52.388;9.986;2023-02-15T12:10:18;101981.63;;;7.55;67.09
77583;BME280;66726;52.388;9.986;2023-02-15T12:12:47;101974.84;;;7.75;67.71
77583;BME280;66726;52.388;9.986;2023-02-15T12:15:31;101979.69;;;7.94;68.27
77583;BME280;66726;52.388;9.986;2023-02-15T12:18:02;101978.06;;;8.15;67.29
77583;BME280;66726;52.388;9.986;2023-02-15T12:20:32;101973.59;;;8.15;66.29
77583;BME280;66726;52.388;9.986;2023-02-15T12:23:04;101973.72;;;8.14;66.94
77583;BME280;66726;52.388;9.986;2023-02-15T12:25:39;101966.34;;;8.18;66.74
77583;BME280;66726;52.388;9.986;2023-02-15T12:28:25;101970.78;;;8.30;65.32
77583;BME280;66726;52.388;9.986;2023-02-15T12:30:57;101968.13;;;8.30;65.49
77583;BME280;66726;52.388;9.986;2023-02-15T12:33:30;101966.91;;;8.34;66.92
77583;BME280;66726;52.388;9.986;2023-02-15T12:36:03;101973.88;;;8.47;66.77
77583;BME280;66726;52.388;9.986;2023-02-15T12:38:32;101958.63;;;8.60;65.58
77583;BME280;66726;52.388;9.986;2023-02-15T12:41:04;101957.16;;;8.56;66.80
77583;BME280;66726;52.388;9.986;2023-02-15T12:43:34;101958.84;;;8.57;64.14
77583;BME280;66726;52.388;9.986;2023-02-15T12:46:25;101951.13;;;8.65;66.60
77583;BME280;66726;52.388;9.986;2023-02-15T12:49:14;101953.56;;;8.80;66.77
77583;BME280;66726;52.388;9.986;2023-02-15T12:51:49;101946.53;;;8.79;64.61
77583;BME280;66726;52.388;9.986;2023-02-15T12:54:30;101945.84;;;8.53;63.42
77583;BME280;66726;52.388;9.986;2023-02-15T12:57:02;101952.31;;;8.61;63.98
77583;BME280;66726;52.388;9.986;2023-02-15T12:59:49;101951.25;;;8.75;64.37
77583;BME280;66726;52.388;9.986;2023-02-15T13:02:25;101949.66;;;8.84;64.33
77583;BME280;66726;52.388;9.986;2023-02-15T13:04:57;101943.13;;;8.88;64.50
77583;BME280;66726;52.388;9.986;2023-02-15T13:07:32;101949.47;;;8.87;63.86
77583;BME280;66726;52.388;9.986;2023-02-15T13:10:01;101940.84;;;9.05;64.55
77583;BME280;66726;52.388;9.986;2023-02-15T13:12:31;101933.69;;;9.06;63.25
77583;BME280;66726;52.388;9.986;2023-02-15T13:15:00;101939.25;;;9.25;62.45
77583;BME280;66726;52.388;9.986;2023-02-15T13:17:33;101941.19;;;9.34;62.00
77583;BME280;66726;52.388;9.986;2023-02-15T13:20:06;101939.75;;;9.19;60.77
77583;BME280;66726;52.388;9.986;2023-02-15T13:22:41;101933.44;;;9.20;60.62
77583;BME280;66726;52.388;9.986;2023-02-15T13:25:18;101926.63;;;9.16;63.81
77583;BME280;66726;52.388;9.986;2023-02-15T13:27:53;101928.03;;;9.42;63.27
77583;BME280;66726;52.388;9.986;2023-02-15T13:30:26;101918.53;;;9.60;63.00
77583;BME280;66726;52.388;9.986;2023-02-15T13:33:02;101909.88;;;9.79;61.85
77583;BME280;66726;52.388;9.986;2023-02-15T13:35:41;101919.47;;;9.71;59.16